Time;durP1;ratioP1;P1;durP2;ratioP2;P2;SDS_P1;SDS_P2;PMS_P1;PMS_P2;Temp;Humidity;BMP_temperature;BMP_pressure;BME280_temperature;BME280_humidity;BME280_pressure;Samples;Min_cycle;Max_cycle;Signal;HPM_P1;HPM_P2
2022/03/08 00:00:43;;;;;;;12.68;7.40;;;;;;;14.90;32.81;101070.34;5014588;28;20026;-75
2022/03/08 00:03:09;;;;;;;10.52;7.13;;;;;;;15.08;32.70;101060.03;5014688;28;20436;-76
2022/03/08 00:05:34;;;;;;;14.07;8.02;;;;;;;15.09;33.03;101058.88;5014558;28;20040;-76
2022/03/08 00:08:01;;;;;;;11.60;7.82;;;;;;;14.89;33.44;101049.50;5014450;28;20030;-76
2022/03/08 00:10:27;;;;;;;16.60;8.68;;;;;;;15.21;33.09;101036.94;5014383;28;20461;-75
2022/03/08 00:12:53;;;;;;;13.15;8.23;;;;;;;15.09;33.29;101028.59;5013200;28;20044;-75
2022/03/08 00:15:24;;;;;;;19.85;9.73;;;;;;;15.03;33.58;101007.94;5014341;28;20500;-75
2022/03/08 00:17:52;;;;;;;17.95;9.85;;;;;;;14.84;33.82;101027.66;5014259;28;20030;-75
2022/03/08 00:20:18;;;;;;;15.77;8.85;;;;;;;14.73;33.75;101027.25;5014332;28;20040;-75
2022/03/08 00:22:44;;;;;;;15.10;9.23;;;;;;;14.84;33.73;101022.97;5014303;28;20030;-88
2022/03/08 00:25:11;;;;;;;17.75;10.15;;;;;;;14.73;33.83;101020.94;5014245;28;20037;-75
2022/03/08 00:27:38;;;;;;;17.63;10.15;;;;;;;14.90;33.55;101020.84;5013973;28;20084;-75
2022/03/08 00:30:05;;;;;;;19.45;10.40;;;;;;;14.89;33.93;101017.28;5013850;28;20042;-75
2022/03/08 00:32:31;;;;;;;17.48;10.55;;;;;;;15.23;33.32;101012.63;5013950;28;20040;-76
2022/03/08 00:34:56;;;;;;;17.88;10.50;;;;;;;14.93;34.14;101006.38;5013952;28;20022;-75
2022/03/08 00:37:22;;;;;;;19.00;10.90;;;;;;;14.89;33.81;100987.00;5013975;28;20041;-76
2022/03/08 00:39:48;;;;;;;12.55;10.05;;;;;;;14.97;33.59;101004.59;5013995;28;20076;-75
2022/03/08 00:42:14;;;;;;;17.58;10.13;;;;;;;14.72;33.94;100984.38;5013965;28;20021;-76
2022/03/08 00:44:39;;;;;;;17.75;11.25;;;;;;;15.20;33.33;100983.03;5013725;28;20026;-76
2022/03/08 00:47:06;;;;;;;20.80;10.93;;;;;;;15.21;33.58;100976.38;5013797;28;20021;-76
2022/03/08 00:49:32;;;;;;;21.20;11.50;;;;;;;14.91;34.62;100973.72;5013913;28;20026;-75
2022/03/08 00:51:58;;;;;;;16.25;10.63;;;;;;;14.87;34.42;100964.50;5013718;28;20030;-76
2022/03/08 00:54:23;;;;;;;16.70;12.10;;;;;;;14.98;34.12;100960.22;5013650;28;20080;-76
2022/03/08 00:56:49;;;;;;;20.65;12.10;;;;;;;14.87;34.02;100956.25;5013764;28;20029;-75
2022/03/08 00:59:14;;;;;;;24.42;12.80;;;;;;;14.94;33.74;100953.78;5013575;28;20435;-75
2022/03/08 01:01:40;;;;;;;15.60;11.35;;;;;;;14.60;34.44;100959.56;5013438;28;20053;-76
2022/03/08 01:04:06;;;;;;;18.65;11.50;;;;;;;14.98;33.47;100968.47;5013957;28;20048;-76
2022/03/08 01:06:31;;;;;;;19.55;11.90;;;;;;;15.18;33.04;100955.00;5013652;28;20503;-76
2022/03/08 01:08:57;;;;;;;16.85;12.60;;;;;;;14.99;32.69;100942.56;5012749;28;20030;-75
2022/03/08 01:11:22;;;;;;;18.85;12.38;;;;;;;15.06;31.72;100946.72;5013584;28;20025;-75
2022/03/08 01:13:48;;;;;;;17.35;11.57;;;;;;;14.84;31.57;100947.88;5013122;28;20109;-75
2022/03/08 01:16:14;;;;;;;21.35;12.27;;;;;;;15.16;31.18;100941.59;5013342;28;20030;-76
2022/03/08 01:18:39;;;;;;;19.85;13.13;;;;;;;15.22;31.10;100940.25;5013342;28;20100;-90
2022/03/08 01:21:05;;;;;;;18.55;13.20;;;;;;;15.24;31.05;100937.16;5013266;28;20108;-75
2022/03/08 01:23:31;;;;;;;20.73;12.55;;;;;;;15.18;31.31;100928.28;5013410;28;20052;-76
2022/03/08 01:25:57;;;;;;;21.50;15.02;;;;;;;15.07;31.59;100923.56;5013398;28;20034;-76
2022/03/08 01:28:22;;;;;;;32.25;16.95;;;;;;;14.74;32.56;100924.34;5013382;28;20030;-81
2022/03/08 01:30:48;;;;;;;24.73;17.35;;;;;;;14.44;33.11;100907.91;5013182;28;20444;-76
2022/03/08 01:33:15;;;;;;;24.05;18.55;;;;;;;14.71;32.77;100892.00;5013292;28;20113;-76
2022/03/08 01:35:40;;;;;;;23.15;18.30;;;;;;;14.66;32.78;100903.19;5013606;28;20026;-76
2022/03/08 01:38:06;;;;;;;23.63;18.75;;;;;;;14.49;32.78;100893.16;5013279;28;20232;-76
2022/03/08 01:40:32;;;;;;;25.90;18.60;;;;;;;14.57;32.66;100891.47;5013248;28;20049;-76
2022/03/08 01:42:57;;;;;;;25.17;20.27;;;;;;;14.89;32.12;100887.16;5012929;28;20034;-76
2022/03/08 01:45:24;;;;;;;25.10;18.40;;;;;;;14.72;32.55;100882.59;5012938;28;20030;-76
2022/03/08 01:47:51;;;;;;;32.55;21.08;;;;;;;14.65;32.64;100887.84;5012813;28;20037;-79
2022/03/08 01:50:17;;;;;;;27.63;19.63;;;;;;;14.69;32.40;100866.78;5012778;28;20120;-76
2022/03/08 01:52:43;;;;;;;21.63;18.67;;;;;;;14.68;32.35;100860.50;5012921;28;20457;-76
2022/03/08 01:55:11;;;;;;;24.80;18.98;;;;;;;14.81;32.00;100861.34;5013062;28;20033;-76
2022/03/08 01:57:37;;;;;;;26.30;20.05;;;;;;;14.81;32.00;100853.09;5012917;28;20037;-76
2022/03/08 02:00:07;;;;;;;30.33;19.60;;;;;;;14.86;32.03;100838.31;5012656;28;20092;-78
2022/03/08 02:02:33;;;;;;;23.90;18.83;;;;;;;14.61;32.72;100834.69;5012936;28;20105;-75
2022/03/08 02:04:58;;;;;;;27.95;20.50;;;;;;;14.78;32.50;100837.25;5011430;28;20110;-75
2022/03/08 02:07:24;;;;;;;26.15;20.08;;;;;;;14.26;33.58;100815.69;5012683;28;20374;-75
2022/03/08 02:09:50;;;;;;;28.08;21.13;;;;;;;14.34;33.57;100828.56;5012825;28;20030;-88
2022/03/08 02:12:16;;;;;;;27.15;20.60;;;;;;;14.27;33.66;100822.00;5012605;28;20460;-76
2022/03/08 02:14:42;;;;;;;29.92;20.27;;;;;;;13.89;33.82;100807.22;5012795;28;20110;-76
2022/03/08 02:17:09;;;;;;;29.35;19.83;;;;;;;14.35;33.22;100783.44;5012618;28;20456;-76
2022/03/08 02:19:34;;;;;;;26.35;20.33;;;;;;;14.43;33.32;100784.50;5012593;28;20049;-79
2022/03/08 02:22:00;;;;;;;32.17;19.85;;;;;;;14.14;33.65;100771.69;5015182;28;20484;-76
2022/03/08 02:24:26;;;;;;;30.48;20.00;;;;;;;14.36;32.94;100759.53;5017018;28;20022;-76
2022/03/08 02:26:52;;;;;;;28.73;18.30;;;;;;;14.19;32.71;100765.97;5016568;28;20026;-76
2022/03/08 02:29:18;;;;;;;30.73;19.63;;;;;;;14.54;31.84;100757.44;5016304;28;20492;-76
2022/03/08 02:31:43;;;;;;;27.67;18.40;;;;;;;14.19;33.29;100765.97;5015913;28;20054;-76
2022/03/08 02:34:09;;;;;;;27.58;20.77;;;;;;;14.36;34.10;100751.28;5016188;28;20485;-76
2022/03/08 02:36:35;;;;;;;25.42;18.10;;;;;;;14.35;33.91;100722.97;5015032;28;20022;-75
2022/03/08 02:39:00;;;;;;;27.75;18.73;;;;;;;14.28;34.39;100724.66;5016233;28;20401;-76
2022/03/08 02:41:26;;;;;;;24.65;19.23;;;;;;;14.46;34.27;100731.63;5016319;28;20108;-76
2022/03/08 02:43:52;;;;;;;31.10;20.35;;;;;;;14.63;34.16;100712.19;5016070;28;20026;-77
2022/03/08 02:46:18;;;;;;;42.25;21.17;;;;;;;14.64;34.18;100704.75;5015992;28;20029;-76
2022/03/08 02:48:43;;;;;;;29.67;20.00;;;;;;;14.51;34.18;100705.84;5015994;28;20026;-77
2022/03/08 02:51:09;;;;;;;27.95;20.52;;;;;;;14.86;33.63;100693.31;5015906;28;20109;-77
2022/03/08 02:53:34;;;;;;;32.63;21.40;;;;;;;14.49;34.48;100686.94;5015834;28;20030;-76
2022/03/08 02:56:00;;;;;;;28.50;19.88;;;;;;;14.71;34.06;100680.22;5316862;22;20004;-76
2022/03/08 02:58:26;;;;;;;36.33;21.40;;;;;;;14.58;34.23;100684.91;5075200;28;20441;-76
2022/03/08 03:00:51;;;;;;;33.30;20.63;;;;;;;14.71;33.84;100667.28;5075602;28;20382;-76
2022/03/08 03:03:17;;;;;;;26.20;20.10;;;;;;;14.33;34.12;100670.28;5057444;28;20078;-76
2022/03/08 03:05:43;;;;;;;31.02;21.65;;;;;;;14.52;33.67;100669.00;5075286;28;20032;-77
2022/03/08 03:08:09;;;;;;;31.55;21.90;;;;;;;14.59;33.61;100658.25;5075457;28;20490;-76
2022/03/08 03:10:34;;;;;;;37.38;21.88;;;;;;;14.38;34.38;100659.06;5075276;28;20029;-77
2022/03/08 03:13:00;;;;;;;32.65;21.90;;;;;;;14.22;35.14;100660.88;5075113;28;20029;-76
2022/03/08 03:15:28;;;;;;;37.55;23.08;;;;;;;14.17;35.15;100647.34;5075072;28;20046;-76
2022/03/08 03:17:54;;;;;;;29.17;21.05;;;;;;;14.12;35.26;100645.59;5075074;28;20036;-76
2022/03/08 03:20:22;;;;;;;32.08;20.95;;;;;;;13.87;35.76;100641.97;5075035;28;20032;-76
2022/03/08 03:22:49;;;;;;;41.85;22.17;;;;;;;14.07;35.38;100625.78;5075044;28;20044;-77
2022/03/08 03:25:15;;;;;;;39.30;23.30;;;;;;;13.90;36.15;100613.00;5074894;28;20059;-77
2022/03/08 03:27:42;;;;;;;36.95;22.55;;;;;;;13.95;35.92;100612.00;5074879;28;20428;-76
2022/03/08 03:30:14;;;;;;;29.92;21.60;;;;;;;13.84;35.97;100612.44;5073615;28;20024;-76
2022/03/08 03:32:41;;;;;;;34.33;23.63;;;;;;;14.09;35.69;100601.53;5073917;28;20557;-76
2022/03/08 03:35:08;;;;;;;36.08;24.67;;;;;;;13.75;36.57;100595.25;5074833;28;20032;-76
2022/03/08 03:37:34;;;;;;;31.88;22.05;;;;;;;13.55;37.12;100601.56;5074716;28;20024;-76
2022/03/08 03:40:00;;;;;;;37.28;23.08;;;;;;;13.81;36.81;100596.63;5074709;28;20035;-77
2022/03/08 03:42:25;;;;;;;34.38;22.17;;;;;;;13.56;37.36;100590.25;5074634;28;20032;-76
2022/03/08 03:44:51;;;;;;;31.20;21.70;;;;;;;13.87;36.66;100584.28;5074612;28;20125;-76
2022/03/08 03:47:17;;;;;;;32.85;23.75;;;;;;;13.61;36.91;100589.25;5074571;28;20025;-77
2022/03/08 03:49:42;;;;;;;36.03;22.60;;;;;;;13.98;36.25;100581.09;5074585;28;20082;-76
2022/03/08 03:52:08;;;;;;;37.08;23.30;;;;;;;13.55;37.33;100565.88;5074370;28;20056;-77
2022/03/08 03:54:34;;;;;;;34.38;23.65;;;;;;;13.80;36.96;100564.81;5074389;28;20413;-77
2022/03/08 03:56:59;;;;;;;28.10;22.20;;;;;;;13.68;37.29;100561.22;5074200;28;20119;-76
2022/03/08 03:59:25;;;;;;;29.00;21.90;;;;;;;13.60;37.29;100554.66;5074224;28;20035;-76
2022/03/08 04:01:51;;;;;;;35.75;23.55;;;;;;;13.71;37.38;100541.34;5074172;28;20027;-76
2022/03/08 04:04:16;;;;;;;43.30;27.23;;;;;;;13.98;37.21;100540.72;5074243;28;20551;-76
2022/03/08 04:06:43;;;;;;;36.45;22.50;;;;;;;13.58;38.07;100540.50;5056187;28;20052;-76
2022/03/08 04:09:08;;;;;;;35.70;24.45;;;;;;;13.99;37.14;100519.56;5074050;28;20024;-76
2022/03/08 04:11:34;;;;;;;37.60;23.30;;;;;;;14.07;37.14;100518.66;5074075;28;20432;-76
2022/03/08 04:14:00;;;;;;;28.55;22.33;;;;;;;13.97;37.43;100516.31;5074039;28;20517;-76
2022/03/08 04:16:26;;;;;;;37.20;24.08;;;;;;;13.68;37.88;100507.13;5074023;28;20103;-77
2022/03/08 04:18:51;;;;;;;35.80;23.17;;;;;;;14.08;36.95;100498.28;5073943;28;20439;-82
2022/03/08 04:21:17;;;;;;;38.47;24.80;;;;;;;14.37;36.32;100489.00;5055954;28;20028;-77
2022/03/08 04:23:43;;;;;;;34.47;24.48;;;;;;;13.85;36.68;100478.66;5070015;28;20146;-76
2022/03/08 04:26:08;;;;;;;38.35;25.92;;;;;;;14.51;35.94;100484.00;5073276;28;20490;-76
2022/03/08 04:28:34;;;;;;;38.45;23.73;;;;;;;14.04;36.55;100467.13;5073683;28;20028;-76
2022/03/08 04:31:00;;;;;;;34.53;22.42;;;;;;;13.85;36.78;100456.69;5073357;28;20486;-76
2022/03/08 04:33:26;;;;;;;37.83;26.55;;;;;;;14.27;36.04;100454.53;5073443;28;20028;-76
2022/03/08 04:35:51;;;;;;;31.92;24.30;;;;;;;13.75;36.92;100455.22;5055613;28;20111;-76
2022/03/08 04:38:17;;;;;;;36.00;25.35;;;;;;;13.97;36.48;100472.38;5073464;28;20098;-76
2022/03/08 04:40:43;;;;;;;31.55;23.70;;;;;;;13.96;36.62;100459.78;5073709;28;20058;-76
2022/03/08 04:43:08;;;;;;;32.67;24.52;;;;;;;14.19;36.17;100446.41;5073311;28;20047;-76
2022/03/08 04:45:34;;;;;;;33.95;24.48;;;;;;;14.29;35.95;100424.78;5073329;28;20055;-77
2022/03/08 04:48:00;;;;;;;40.00;24.50;;;;;;;14.06;36.21;100446.41;5073300;28;20068;-76
2022/03/08 04:50:25;;;;;;;37.20;24.30;;;;;;;14.15;35.73;100449.06;5073312;28;20420;-76
2022/03/08 04:52:51;;;;;;;34.30;23.73;;;;;;;14.20;35.05;100443.31;5073111;28;20492;-76
2022/03/08 04:55:18;;;;;;;30.77;23.35;;;;;;;13.79;36.06;100450.63;5073193;28;20047;-76
2022/03/08 04:57:44;;;;;;;36.72;25.13;;;;;;;14.18;35.47;100439.31;5072963;28;20414;-77
2022/03/08 05:00:12;;;;;;;37.40;23.60;;;;;;;14.32;35.41;100443.31;5073095;28;20034;-77
2022/03/08 05:02:39;;;;;;;36.35;26.58;;;;;;;14.44;35.59;100432.31;5072974;28;20036;-76
2022/03/08 05:05:08;;;;;;;37.63;25.42;;;;;;;14.34;35.57;100418.22;5073002;28;20031;-76
2022/03/08 05:07:35;;;;;;;45.33;26.67;;;;;;;14.72;34.81;100420.56;5055056;28;20025;-76
2022/03/08 05:10:02;;;;;;;33.47;24.70;;;;;;;14.24;35.96;100424.19;5072920;28;20107;-76
2022/03/08 05:12:27;;;;;;;34.95;24.27;;;;;;;14.12;36.09;100416.75;5072822;28;20029;-76
2022/03/08 05:14:53;;;;;;;39.92;25.70;;;;;;;14.33;35.55;100402.88;5072896;28;20474;-76
2022/03/08 05:17:18;;;;;;;33.63;23.13;;;;;;;14.22;35.82;100418.25;5073060;28;20474;-76
2022/03/08 05:19:44;;;;;;;39.30;23.88;;;;;;;14.54;35.45;100414.56;5072750;28;20052;-77
2022/03/08 05:22:09;;;;;;;35.88;21.55;;;;;;;14.12;36.39;100411.25;5072738;28;20025;-76
2022/03/08 05:24:35;;;;;;;37.25;23.85;;;;;;;14.53;35.41;100412.97;5072744;28;20386;-76
2022/03/08 05:27:01;;;;;;;37.38;23.90;;;;;;;14.63;35.32;100412.47;5072976;28;20024;-76
2022/03/08 05:29:27;;;;;;;42.78;24.75;;;;;;;14.68;35.24;100394.94;5072640;28;20104;-76
2022/03/08 05:31:53;;;;;;;32.45;22.85;;;;;;;14.02;35.95;100381.50;5071321;28;20021;-76
2022/03/08 05:34:19;;;;;;;29.58;22.13;;;;;;;14.25;35.57;100381.81;5072546;28;20481;-76
2022/03/08 05:36:44;;;;;;;36.00;23.23;;;;;;;14.66;35.05;100394.47;5072606;28;20099;-76
2022/03/08 05:39:10;;;;;;;39.85;25.35;;;;;;;14.34;35.99;100377.78;5072585;28;20025;-76
2022/03/08 05:41:36;;;;;;;34.65;22.92;;;;;;;14.05;36.33;100373.38;5072537;28;20017;-76
2022/03/08 05:44:02;;;;;;;34.53;23.05;;;;;;;14.22;35.88;100375.09;5072486;28;20016;-76
2022/03/08 05:46:28;;;;;;;33.90;24.02;;;;;;;14.37;35.51;100388.09;5072582;28;20033;-76
2022/03/08 05:48:53;;;;;;;34.55;24.73;;;;;;;14.68;34.97;100372.94;5072458;28;20516;-76
2022/03/08 05:51:19;;;;;;;39.33;24.75;;;;;;;14.61;35.25;100353.47;5072384;28;20071;-76
2022/03/08 05:53:44;;;;;;;35.75;24.98;;;;;;;14.61;35.90;100358.97;5072630;28;20024;-76
2022/03/08 05:56:10;;;;;;;37.75;25.60;;;;;;;14.59;35.84;100353.03;5071772;28;20072;-76
2022/03/08 05:58:36;;;;;;;33.80;23.55;;;;;;;14.79;35.61;100376.78;5072340;28;20115;-76
2022/03/08 06:01:02;;;;;;;40.78;24.73;;;;;;;14.47;35.68;100362.09;5072379;28;20158;-76
2022/03/08 06:03:27;;;;;;;39.45;21.42;;;;;;;14.20;35.98;100360.88;5072250;28;20048;-76
2022/03/08 06:05:53;;;;;;;34.10;22.73;;;;;;;14.50;35.05;100375.16;5072244;28;20028;-76
2022/03/08 06:08:18;;;;;;;33.38;22.95;;;;;;;14.47;34.79;100358.56;5072251;28;20055;-76
2022/03/08 06:10:44;;;;;;;32.92;23.52;;;;;;;14.30;35.23;100368.66;5072238;28;20030;-76
2022/03/08 06:13:09;;;;;;;34.72;22.92;;;;;;;14.46;35.14;100356.97;5072139;28;20039;-76
2022/03/08 06:15:35;;;;;;;34.65;22.15;;;;;;;14.64;34.89;100344.53;5072280;28;20455;-76
2022/03/08 06:18:01;;;;;;;40.67;24.67;;;;;;;14.43;35.29;100342.75;5072211;28;20043;-76
2022/03/08 06:20:26;;;;;;;66.05;27.38;;;;;;;14.74;35.09;100352.28;5072173;28;20035;-76
2022/03/08 06:22:53;;;;;;;39.28;24.52;;;;;;;14.42;36.12;100343.06;5072151;28;20021;-77
2022/03/08 06:25:19;;;;;;;34.25;22.67;;;;;;;14.49;35.84;100348.00;5070770;28;20020;-80
2022/03/08 06:27:45;;;;;;;33.70;21.25;;;;;;;14.53;35.38;100335.97;5072006;28;20101;-76
2022/03/08 06:30:11;;;;;;;40.38;24.73;;;;;;;14.25;35.68;100326.88;5072275;28;20025;-76
2022/03/08 06:32:37;;;;;;;29.23;21.88;;;;;;;14.50;35.20;100324.88;5071934;28;20074;-76
2022/03/08 06:35:03;;;;;;;31.98;21.05;;;;;;;13.92;36.21;100289.41;5072055;28;20032;-76
2022/03/08 06:37:28;;;;;;;30.58;22.17;;;;;;;14.18;35.65;100324.69;5071934;28;20115;-76
2022/03/08 06:39:54;;;;;;;36.72;21.92;;;;;;;14.52;35.25;100304.16;5072040;28;20112;-76
2022/03/08 06:42:20;;;;;;;39.67;23.00;;;;;;;14.72;34.83;100307.81;5072088;28;20048;-76
2022/03/08 06:44:45;;;;;;;42.95;23.90;;;;;;;14.49;35.45;100307.56;5071919;28;20029;-76
2022/03/08 06:47:11;;;;;;;35.85;20.13;;;;;;;13.91;36.51;100303.50;5071946;28;20036;-76
2022/03/08 06:49:39;;;;;;;31.77;23.30;;;;;;;14.01;36.59;100303.78;5071941;28;20108;-76
2022/03/08 06:52:07;;;;;;;42.17;22.65;;;;;;;14.40;35.80;100293.94;5071800;28;20111;-76
2022/03/08 06:54:33;;;;;;;35.83;23.92;;;;;;;14.75;35.23;100276.88;5071794;28;20094;-76
2022/03/08 06:56:59;;;;;;;42.85;24.60;;;;;;;14.79;35.29;100291.50;5071478;28;20087;-76
2022/03/08 06:59:25;;;;;;;37.85;25.25;;;;;;;14.46;36.00;100304.72;5071705;28;20481;-76
2022/03/08 07:01:51;;;;;;;39.92;24.13;;;;;;;14.46;35.96;100305.53;5071756;28;20028;-77
2022/03/08 07:04:17;;;;;;;33.55;23.08;;;;;;;14.36;36.41;100303.25;5071755;28;20020;-76
2022/03/08 07:06:43;;;;;;;40.90;24.15;;;;;;;14.67;35.42;100286.09;5071836;28;20031;-76
2022/03/08 07:09:08;;;;;;;32.60;22.80;;;;;;;14.30;36.41;100288.97;5075456;28;20033;-76
2022/03/08 07:11:36;;;;;;;41.75;23.58;;;;;;;14.09;37.16;100280.88;5075148;28;20064;-76
2022/03/08 07:14:02;;;;;;;34.83;25.00;;;;;;;14.48;36.36;100283.97;5075170;28;20029;-76
2022/03/08 07:16:28;;;;;;;35.70;23.40;;;;;;;14.65;36.13;100283.66;5075233;28;20051;-76
2022/03/08 07:18:54;;;;;;;37.97;24.08;;;;;;;14.81;35.82;100269.97;5075169;28;20494;-77
2022/03/08 07:21:19;;;;;;;50.17;24.75;;;;;;;14.85;35.87;100276.34;5074965;28;20035;-78
2022/03/08 07:23:45;;;;;;;40.10;20.92;;;;;;;14.18;37.34;100249.72;5074998;28;20040;-76
2022/03/08 07:26:11;;;;;;;33.95;23.13;;;;;;;14.58;36.54;100266.97;5067567;28;20028;-77
2022/03/08 07:28:36;;;;;;;54.05;26.13;;;;;;;14.79;36.17;100276.97;5074782;28;20058;-75
2022/03/08 07:31:03;;;;;;;36.78;24.23;;;;;;;14.61;36.62;100254.50;5074907;28;20448;-76
2022/03/08 07:33:28;;;;;;;40.13;23.75;;;;;;;14.59;36.66;100259.56;5074682;28;20094;-76
2022/03/08 07:35:54;;;;;;;36.70;23.70;;;;;;;14.55;36.72;100255.91;5074862;28;20037;-78
2022/03/08 07:38:20;;;;;;;39.70;24.10;;;;;;;14.90;36.42;100261.56;5074746;28;20035;-76
2022/03/08 07:40:45;;;;;;;54.30;25.40;;;;;;;14.47;37.24;100254.91;5074661;28;20032;-78
2022/03/08 07:43:11;;;;;;;60.08;28.20;;;;;;;14.74;36.63;100253.28;5074702;28;20466;-76
2022/03/08 07:45:36;;;;;;;36.78;24.27;;;;;;;14.63;37.05;100252.19;5074628;28;20474;-76
2022/03/08 07:48:05;;;;;;;45.85;26.08;;;;;;;14.45;37.26;100240.69;5074694;28;20056;-76
2022/03/08 07:50:32;;;;;;;33.88;23.35;;;;;;;14.36;37.68;100248.28;5074495;28;20394;-75
2022/03/08 07:52:59;;;;;;;39.72;25.98;;;;;;;14.64;37.31;100242.78;5074306;28;20117;-75
2022/03/08 07:55:26;;;;;;;38.70;24.83;;;;;;;14.92;36.63;100228.97;5056403;28;20025;-75
2022/03/08 07:57:52;;;;;;;36.58;23.80;;;;;;;14.56;37.41;100236.28;5073909;28;20044;-75
2022/03/08 08:00:18;;;;;;;35.50;22.67;;;;;;;14.51;37.53;100224.75;5056264;28;20028;-75
2022/03/08 08:02:43;;;;;;;44.00;25.05;;;;;;;14.74;37.15;100225.00;5072882;28;20028;-76
2022/03/08 08:05:09;;;;;;;44.95;27.65;;;;;;;14.94;36.88;100230.22;5074228;28;20429;-76
2022/03/08 08:07:35;;;;;;;41.08;24.95;;;;;;;14.96;36.91;100218.84;5074242;28;20099;-75
2022/03/08 08:10:01;;;;;;;41.85;26.02;;;;;;;14.79;37.54;100222.75;5074161;28;20028;-77
2022/03/08 08:12:27;;;;;;;39.72;25.15;;;;;;;14.83;37.39;100234.66;5074021;28;20074;-78
2022/03/08 08:14:52;;;;;;;43.92;25.75;;;;;;;14.85;37.57;100235.09;5073949;28;20024;-77
2022/03/08 08:17:18;;;;;;;48.83;25.83;;;;;;;14.93;37.32;100233.31;5073860;28;20025;-76
2022/03/08 08:19:44;;;;;;;50.28;26.70;;;;;;;15.01;37.58;100250.81;5073143;28;20104;-76
2022/03/08 08:22:09;;;;;;;45.40;26.75;;;;;;;15.08;37.30;100234.50;5053706;28;20060;-76
2022/03/08 08:24:35;;;;;;;47.75;26.02;;;;;;;15.01;37.47;100224.09;5072050;28;20056;-76
2022/03/08 08:27:01;;;;;;;44.47;27.83;;;;;;;15.27;37.13;100226.31;5072908;28;20024;-76
2022/03/08 08:29:27;;;;;;;45.05;26.73;;;;;;;15.16;37.46;100215.03;5072139;28;20016;-76
2022/03/08 08:31:52;;;;;;;46.35;26.85;;;;;;;15.16;37.70;100206.78;5071983;28;20029;-77
2022/03/08 08:34:18;;;;;;;58.10;26.92;;;;;;;15.05;38.09;100208.50;5072333;28;20052;-76
2022/03/08 08:36:47;;;;;;;35.15;24.17;;;;;;;14.62;39.08;100201.91;5071885;28;20466;-76
2022/03/08 08:39:16;;;;;;;44.07;24.97;;;;;;;15.01;38.00;100215.84;5072894;28;20545;-77
2022/03/08 08:41:43;;;;;;;43.97;25.85;;;;;;;14.82;38.47;100213.03;5073553;28;20466;-76
2022/03/08 08:44:10;;;;;;;44.08;25.55;;;;;;;15.09;38.19;100212.13;5073304;28;20039;-82
2022/03/08 08:46:35;;;;;;;46.35;26.40;;;;;;;15.37;37.25;100208.44;5071078;28;20029;-76
2022/03/08 08:49:01;;;;;;;40.30;23.42;;;;;;;15.26;37.80;100219.19;5067849;28;20075;-76
2022/03/08 08:51:27;;;;;;;34.03;23.90;;;;;;;15.33;37.47;100224.88;5053140;28;20043;-77
2022/03/08 08:53:53;;;;;;;42.28;23.70;;;;;;;15.23;37.66;100217.97;5053350;28;20032;-76
2022/03/08 08:56:19;;;;;;;39.47;22.40;;;;;;;14.90;38.28;100199.09;5052943;28;20044;-77
2022/03/08 08:58:44;;;;;;;40.00;25.83;;;;;;;14.99;38.14;100191.44;5047029;28;20737;-77
2022/03/08 09:01:10;;;;;;;39.72;25.20;;;;;;;15.14;38.05;100205.56;5037531;28;20625;-77
2022/03/08 09:03:36;;;;;;;42.60;22.27;;;;;;;15.20;37.86;100177.41;5048150;28;20847;-77
2022/03/08 09:06:01;;;;;;;48.28;27.48;;;;;;;15.28;37.66;100181.13;5052256;28;20024;-77
2022/03/08 09:08:27;;;;;;;42.13;24.98;;;;;;;15.13;37.93;100198.47;5059250;28;20470;-77
2022/03/08 09:10:54;;;;;;;41.55;23.77;;;;;;;15.19;38.01;100186.03;5063384;28;20029;-76
2022/03/08 09:13:21;;;;;;;41.88;23.85;;;;;;;15.29;37.85;100190.97;5063157;28;20027;-76
2022/03/08 09:15:47;;;;;;;45.40;26.35;;;;;;;15.13;38.43;100207.50;5062454;28;20025;-76
2022/03/08 09:18:12;;;;;;;44.13;26.35;;;;;;;15.28;38.15;100189.38;5068163;28;20032;-77
2022/03/08 09:20:38;;;;;;;36.35;24.92;;;;;;;15.12;38.81;100205.13;5079379;28;20028;-81
2022/03/08 09:23:05;;;;;;;61.40;27.75;;;;;;;15.19;38.55;100211.59;5061381;28;20048;-86
2022/03/08 09:25:32;;;;;;;38.22;25.15;;;;;;;15.13;38.63;100188.25;5063306;28;20059;-76
2022/03/08 09:27:58;;;;;;;38.83;24.65;;;;;;;15.27;38.81;100193.28;5044904;28;20074;-76
2022/03/08 09:30:24;;;;;;;51.10;26.90;;;;;;;15.62;37.81;100198.03;5060358;28;20033;-76
2022/03/08 09:32:50;;;;;;;53.80;26.80;;;;;;;15.65;37.98;100191.81;5063874;28;20471;-78
2022/03/08 09:35:16;;;;;;;37.40;25.85;;;;;;;15.59;38.25;100194.00;5064197;28;20100;-81
2022/03/08 09:37:42;;;;;;;45.80;26.23;;;;;;;15.45;38.49;100196.44;5058396;28;20104;-82
2022/03/08 09:40:09;;;;;;;44.25;26.67;;;;;;;15.49;38.58;100189.88;5065760;28;20035;-81
2022/03/08 09:42:36;;;;;;;42.53;25.17;;;;;;;15.57;38.53;100177.06;5054886;28;20398;-83
2022/03/08 09:45:02;;;;;;;50.28;27.35;;;;;;;15.78;38.09;100162.97;5072891;28;20051;-86
2022/03/08 09:47:27;;;;;;;38.67;25.33;;;;;;;15.86;38.18;100170.22;5072583;28;20064;-80
2022/03/08 09:49:53;;;;;;;41.20;25.88;;;;;;;15.78;38.34;100162.97;5071793;28;20409;-79
2022/03/08 09:52:20;;;;;;;39.22;24.88;;;;;;;15.66;38.75;100165.88;5054493;28;20123;-84
2022/03/08 09:54:46;;;;;;;37.55;24.50;;;;;;;15.57;38.89;100163.28;5063590;28;20111;-88
2022/03/08 09:57:14;;;;;;;40.13;25.55;;;;;;;15.79;38.41;100159.03;5084287;28;20044;-80
2022/03/08 09:59:41;;;;;;;42.95;26.00;;;;;;;15.81;38.69;100149.28;5065506;28;20029;-86
2022/03/08 10:02:11;;;;;;;43.10;25.52;;;;;;;15.90;38.37;100151.81;5054857;28;20125;-87
2022/03/08 10:04:38;;;;;;;;;;;;;;;15.70;39.12;100142.72;5053444;28;20367;-85
2022/03/08 10:07:08;;;;;;;39.95;26.10;;;;;;;15.65;39.59;100132.03;5039377;28;19920;-85
2022/03/08 10:09:34;;;;;;;41.90;24.95;;;;;;;16.04;39.11;100130.06;5053627;28;20104;-86
2022/03/08 10:12:00;;;;;;;47.63;24.48;;;;;;;16.20;38.73;100096.88;5058881;28;20032;-83
2022/03/08 10:14:40;;;;;;;48.03;25.70;;;;;;;16.13;38.92;100118.00;5057161;28;20711;-84
2022/03/08 10:17:07;;;;;;;46.80;26.42;;;;;;;16.11;39.30;100107.34;5057083;28;20024;-80
2022/03/08 10:19:49;;;;;;;43.47;25.90;;;;;;;16.44;38.68;100100.44;5038874;28;20028;-85
2022/03/08 10:22:37;;;;;;;53.38;25.70;;;;;;;16.61;38.40;100099.94;5053188;28;20028;-80
2022/03/08 10:25:13;;;;;;;42.88;24.35;;;;;;;16.53;38.33;100101.78;5034576;28;20953;-82
2022/03/08 10:28:02;;;;;;;52.97;26.00;;;;;;;16.59;38.34;100089.28;5057651;28;20108;-84
2022/03/08 10:30:50;;;;;;;51.97;24.15;;;;;;;16.42;38.59;100084.25;5052698;28;20063;-88
2022/03/08 10:33:19;;;;;;;37.42;24.67;;;;;;;16.45;38.37;100074.44;5057090;28;20044;-87
2022/03/08 10:35:46;;;;;;;42.75;25.70;;;;;;;16.13;39.18;100071.94;5069351;28;20024;-87
2022/03/08 10:38:12;;;;;;;42.10;22.83;;;;;;;16.25;38.42;100057.19;5054151;28;20375;-85
2022/03/08 10:40:38;;;;;;;41.15;23.48;;;;;;;16.35;38.62;100053.81;5035412;28;20029;-89
2022/03/08 10:43:16;;;;;;;39.20;23.00;;;;;;;16.18;38.88;100052.34;5038750;28;20057;-86
2022/03/08 10:45:47;;;;;;;43.72;23.67;;;;;;;15.73;40.03;100066.88;5056535;28;20029;-81
2022/03/08 10:48:17;;;;;;;64.45;25.58;;;;;;;15.82;39.38;100070.19;5056083;28;20505;-86
2022/03/08 10:50:43;;;;;;;42.75;24.58;;;;;;;16.17;39.11;100052.69;5056588;28;20621;-86
2022/03/08 10:53:11;;;;;;;38.47;23.65;;;;;;;15.91;39.34;100070.75;5056172;28;20068;-80
2022/03/08 10:55:50;;;;;;;36.40;22.25;;;;;;;16.49;38.42;100075.31;5038265;28;20525;-88
2022/03/08 10:58:17;;;;;;;31.65;22.15;;;;;;;16.26;39.16;100078.88;5074673;28;20032;-79
2022/03/08 11:00:53;;;;;;;47.30;23.95;;;;;;;16.01;39.47;100074.84;5058423;28;20028;-80
2022/03/08 11:03:21;;;;;;;46.08;23.52;;;;;;;16.08;39.31;100083.25;5075336;28;20025;-87
2022/03/08 11:05:54;;;;;;;36.05;22.38;;;;;;;16.19;39.24;100064.16;5076268;28;20105;-88